sensor_id;sensor_type;location;lat;lon;timestamp;P1;durP1;ratioP1;P2;durP2;ratioP2
7939;SDS011;4015;48.888;9.226;2022-10-31T00:01:21;14.40;;;8.63;;
7939;SDS011;4015;48.888;9.226;2022-10-31T00:03:50;14.60;;;8.83;;
7939;SDS011;4015;48.888;9.226;2022-10-31T00:06:15;15.20;;;9.47;;
7939;SDS011;4015;48.888;9.226;2022-10-31T00:08:47;14.90;;;9.17;;
7939;SDS011;4015;48.888;9.226;2022-10-31T00:11:16;11.90;;;8.77;;
7939;SDS011;4015;48.888;9.226;2022-10-31T00:13:41;13.50;;;9.00;;
7939;SDS011;4015;48.888;9.226;2022-10-31T00:16:12;17.10;;;9.33;;
7939;SDS011;4015;48.888;9.226;2022-10-31T00:18:39;14.63;;;9.03;;
7939;SDS011;4015;48.888;9.226;2022-10-31T00:21:04;13.63;;;9.30;;
7939;SDS011;4015;48.888;9.226;2022-10-31T00:23:29;15.90;;;9.23;;
7939;SDS011;4015;48.888;9.226;2022-10-31T00:25:59;15.43;;;9.03;;
7939;SDS011;4015;48.888;9.226;2022-10-31T00:28:26;15.43;;;8.93;;
7939;SDS011;4015;48.888;9.226;2022-10-31T00:30:51;17.07;;;8.57;;
7939;SDS011;4015;48.888;9.226;2022-10-31T00:33:17;13.20;;;9.53;;
7939;SDS011;4015;48.888;9.226;2022-10-31T00:35:42;12.37;;;9.00;;
7939;SDS011;4015;48.888;9.226;2022-10-31T00:38:08;12.70;;;8.63;;
7939;SDS011;4015;48.888;9.226;2022-10-31T00:40:33;17.93;;;8.87;;
7939;SDS011;4015;48.888;9.226;2022-10-31T00:42:58;13.27;;;9.67;;
7939;SDS011;4015;48.888;9.226;2022-10-31T00:45:24;14.53;;;9.47;;
7939;SDS011;4015;48.888;9.226;2022-10-31T00:47:49;15.63;;;8.77;;
7939;SDS011;4015;48.888;9.226;2022-10-31T00:50:15;13.33;;;8.00;;
7939;SDS011;4015;48.888;9.226;2022-10-31T00:52:40;14.87;;;9.13;;
7939;SDS011;4015;48.888;9.226;2022-10-31T00:55:06;15.60;;;7.80;;
7939;SDS011;4015;48.888;9.226;2022-10-31T00:57:31;18.57;;;8.63;;
7939;SDS011;4015;48.888;9.226;2022-10-31T00:59:56;13.67;;;8.73;;
7939;SDS011;4015;48.888;9.226;2022-10-31T01:02:22;14.83;;;9.07;;
7939;SDS011;4015;48.888;9.226;2022-10-31T01:04:47;14.97;;;8.23;;
7939;SDS011;4015;48.888;9.226;2022-10-31T01:07:12;11.40;;;7.60;;
7939;SDS011;4015;48.888;9.226;2022-10-31T01:09:38;13.00;;;7.90;;
7939;SDS011;4015;48.888;9.226;2022-10-31T01:12:04;15.10;;;7.60;;
7939;SDS011;4015;48.888;9.226;2022-10-31T01:14:29;13.57;;;7.63;;
7939;SDS011;4015;48.888;9.226;2022-10-31T01:16:55;10.73;;;7.07;;
7939;SDS011;4015;48.888;9.226;2022-10-31T01:19:20;14.27;;;7.63;;
7939;SDS011;4015;48.888;9.226;2022-10-31T01:21:45;11.20;;;6.83;;
7939;SDS011;4015;48.888;9.226;2022-10-31T01:24:11;17.43;;;7.97;;
7939;SDS011;4015;48.888;9.226;2022-10-31T01:26:36;13.30;;;6.87;;
7939;SDS011;4015;48.888;9.226;2022-10-31T01:29:06;12.93;;;7.50;;
7939;SDS011;4015;48.888;9.226;2022-10-31T01:31:34;12.03;;;7.70;;
7939;SDS011;4015;48.888;9.226;2022-10-31T01:34:01;12.13;;;7.17;;
7939;SDS011;4015;48.888;9.226;2022-10-31T01:36:28;16.97;;;7.53;;
7939;SDS011;4015;48.888;9.226;2022-10-31T01:38:56;14.57;;;7.40;;
7939;SDS011;4015;48.888;9.226;2022-10-31T01:41:25;13.47;;;7.80;;
7939;SDS011;4015;48.888;9.226;2022-10-31T01:43:56;12.03;;;7.27;;
7939;SDS011;4015;48.888;9.226;2022-10-31T01:46:58;13.93;;;7.50;;
7939;SDS011;4015;48.888;9.226;2022-10-31T01:49:34;12.43;;;8.87;;
7939;SDS011;4015;48.888;9.226;2022-10-31T01:52:07;15.80;;;9.00;;
7939;SDS011;4015;48.888;9.226;2022-10-31T01:54:43;12.77;;;8.10;;
7939;SDS011;4015;48.888;9.226;2022-10-31T01:57:12;15.73;;;8.17;;
7939;SDS011;4015;48.888;9.226;2022-10-31T01:59:42;11.23;;;8.03;;
7939;SDS011;4015;48.888;9.226;2022-10-31T02:02:11;14.40;;;8.23;;
7939;SDS011;4015;48.888;9.226;2022-10-31T02:04:38;16.07;;;8.93;;
7939;SDS011;4015;48.888;9.226;2022-10-31T02:07:05;11.23;;;8.27;;
7939;SDS011;4015;48.888;9.226;2022-10-31T02:09:35;13.33;;;8.17;;
7939;SDS011;4015;48.888;9.226;2022-10-31T02:12:02;10.77;;;7.63;;
7939;SDS011;4015;48.888;9.226;2022-10-31T02:14:29;9.90;;;7.37;;
7939;SDS011;4015;48.888;9.226;2022-10-31T02:16:56;11.40;;;7.63;;
7939;SDS011;4015;48.888;9.226;2022-10-31T02:19:26;15.97;;;7.97;;
7939;SDS011;4015;48.888;9.226;2022-10-31T02:23:08;13.37;;;8.00;;
7939;SDS011;4015;48.888;9.226;2022-10-31T02:31:06;10.83;;;6.80;;
7939;SDS011;4015;48.888;9.226;2022-10-31T02:41:39;14.43;;;7.23;;
7939;SDS011;4015;48.888;9.226;2022-10-31T02:44:28;8.53;;;6.87;;
7939;SDS011;4015;48.888;9.226;2022-10-31T02:47:01;9.20;;;7.10;;
7939;SDS011;4015;48.888;9.226;2022-10-31T02:49:33;12.97;;;7.37;;
7939;SDS011;4015;48.888;9.226;2022-10-31T02:52:01;13.40;;;8.47;;
7939;SDS011;4015;48.888;9.226;2022-10-31T02:54:27;15.50;;;8.20;;
7939;SDS011;4015;48.888;9.226;2022-10-31T02:56:56;12.67;;;8.23;;
7939;SDS011;4015;48.888;9.226;2022-10-31T02:59:28;10.97;;;7.47;;
7939;SDS011;4015;48.888;9.226;2022-10-31T03:16:15;14.83;;;8.07;;
7939;SDS011;4015;48.888;9.226;2022-10-31T03:18:49;11.37;;;8.33;;
7939;SDS011;4015;48.888;9.226;2022-10-31T03:21:19;9.43;;;7.57;;
7939;SDS011;4015;48.888;9.226;2022-10-31T03:23:48;9.43;;;6.70;;
7939;SDS011;4015;48.888;9.226;2022-10-31T03:26:16;14.60;;;7.30;;
7939;SDS011;4015;48.888;9.226;2022-10-31T03:28:50;10.60;;;7.73;;
7939;SDS011;4015;48.888;9.226;2022-10-31T03:31:20;13.83;;;8.40;;
7939;SDS011;4015;48.888;9.226;2022-10-31T03:33:51;10.63;;;6.97;;
7939;SDS011;4015;48.888;9.226;2022-10-31T03:36:17;13.60;;;7.90;;
7939;SDS011;4015;48.888;9.226;2022-10-31T03:38:45;11.23;;;7.27;;
7939;SDS011;4015;48.888;9.226;2022-10-31T03:41:13;14.13;;;7.87;;
7939;SDS011;4015;48.888;9.226;2022-10-31T03:43:42;11.37;;;6.80;;
7939;SDS011;4015;48.888;9.226;2022-10-31T03:46:16;12.23;;;7.50;;
7939;SDS011;4015;48.888;9.226;2022-10-31T03:48:42;11.87;;;8.27;;
7939;SDS011;4015;48.888;9.226;2022-10-31T03:51:10;15.63;;;8.30;;
7939;SDS011;4015;48.888;9.226;2022-10-31T03:53:57;10.17;;;7.07;;
7939;SDS011;4015;48.888;9.226;2022-10-31T03:56:32;16.60;;;7.33;;
7939;SDS011;4015;48.888;9.226;2022-10-31T03:59:02;13.60;;;7.13;;
7939;SDS011;4015;48.888;9.226;2022-10-31T04:01:34;13.43;;;6.87;;
7939;SDS011;4015;48.888;9.226;2022-10-31T04:04:03;9.90;;;6.70;;
7939;SDS011;4015;48.888;9.226;2022-10-31T04:06:31;10.27;;;6.53;;
7939;SDS011;4015;48.888;9.226;2022-10-31T04:09:00;12.63;;;6.97;;
7939;SDS011;4015;48.888;9.226;2022-10-31T04:11:30;14.93;;;6.57;;
7939;SDS011;4015;48.888;9.226;2022-10-31T04:13:59;10.80;;;7.07;;
7939;SDS011;4015;48.888;9.226;2022-10-31T04:16:27;11.30;;;6.30;;
7939;SDS011;4015;48.888;9.226;2022-10-31T04:18:53;9.40;;;6.63;;
7939;SDS011;4015;48.888;9.226;2022-10-31T04:21:19;12.03;;;6.37;;
7939;SDS011;4015;48.888;9.226;2022-10-31T04:23:44;12.50;;;7.00;;
7939;SDS011;4015;48.888;9.226;2022-10-31T04:26:12;12.80;;;7.47;;
7939;SDS011;4015;48.888;9.226;2022-10-31T04:28:38;9.27;;;6.20;;
7939;SDS011;4015;48.888;9.226;2022-10-31T04:31:04;10.27;;;6.60;;
7939;SDS011;4015;48.888;9.226;2022-10-31T04:33:29;12.90;;;6.93;;
7939;SDS011;4015;48.888;9.226;2022-10-31T04:35:54;11.83;;;6.53;;
7939;SDS011;4015;48.888;9.226;2022-10-31T04:38:20;13.30;;;7.13;;
7939;SDS011;4015;48.888;9.226;2022-10-31T04:40:45;11.67;;;6.70;;
7939;SDS011;4015;48.888;9.226;2022-10-31T04:43:10;9.97;;;6.30;;
7939;SDS011;4015;48.888;9.226;2022-10-31T04:45:36;14.07;;;6.57;;
7939;SDS011;4015;48.888;9.226;2022-10-31T04:48:02;12.53;;;6.80;;
7939;SDS011;4015;48.888;9.226;2022-10-31T04:50:27;9.67;;;6.63;;
7939;SDS011;4015;48.888;9.226;2022-10-31T04:52:53;10.50;;;7.50;;
7939;SDS011;4015;48.888;9.226;2022-10-31T04:55:18;10.40;;;6.80;;
7939;SDS011;4015;48.888;9.226;2022-10-31T04:57:47;11.33;;;6.90;;
7939;SDS011;4015;48.888;9.226;2022-10-31T05:00:15;10.90;;;7.13;;
7939;SDS011;4015;48.888;9.226;2022-10-31T05:02:44;13.57;;;7.10;;
7939;SDS011;4015;48.888;9.226;2022-10-31T05:05:10;10.30;;;6.43;;
7939;SDS011;4015;48.888;9.226;2022-10-31T05:07:40;8.57;;;5.90;;
7939;SDS011;4015;48.888;9.226;2022-10-31T05:10:07;7.60;;;5.60;;
7939;SDS011;4015;48.888;9.226;2022-10-31T05:12:35;11.43;;;6.37;;
7939;SDS011;4015;48.888;9.226;2022-10-31T05:15:00;11.07;;;5.50;;
7939;SDS011;4015;48.888;9.226;2022-10-31T05:17:26;8.80;;;6.00;;
7939;SDS011;4015;48.888;9.226;2022-10-31T05:19:51;9.43;;;5.67;;
7939;SDS011;4015;48.888;9.226;2022-10-31T05:22:16;8.40;;;5.33;;
7939;SDS011;4015;48.888;9.226;2022-10-31T05:24:41;14.27;;;5.97;;
7939;SDS011;4015;48.888;9.226;2022-10-31T05:27:07;9.27;;;5.97;;
7939;SDS011;4015;48.888;9.226;2022-10-31T05:29:32;10.10;;;5.77;;
7939;SDS011;4015;48.888;9.226;2022-10-31T05:31:58;9.23;;;5.47;;
7939;SDS011;4015;48.888;9.226;2022-10-31T05:34:24;11.70;;;5.83;;
7939;SDS011;4015;48.888;9.226;2022-10-31T05:36:49;9.40;;;6.43;;
7939;SDS011;4015;48.888;9.226;2022-10-31T05:39:15;9.80;;;7.07;;
7939;SDS011;4015;48.888;9.226;2022-10-31T05:41:40;11.63;;;6.70;;
7939;SDS011;4015;48.888;9.226;2022-10-31T05:44:05;9.07;;;5.93;;
7939;SDS011;4015;48.888;9.226;2022-10-31T05:46:31;10.80;;;6.73;;
7939;SDS011;4015;48.888;9.226;2022-10-31T05:48:56;12.83;;;6.57;;
7939;SDS011;4015;48.888;9.226;2022-10-31T05:51:21;11.77;;;6.80;;
7939;SDS011;4015;48.888;9.226;2022-10-31T05:53:47;11.47;;;6.57;;
7939;SDS011;4015;48.888;9.226;2022-10-31T05:56:12;12.07;;;6.40;;
7939;SDS011;4015;48.888;9.226;2022-10-31T05:58:38;11.87;;;7.47;;
7939;SDS011;4015;48.888;9.226;2022-10-31T06:01:03;9.30;;;6.53;;
7939;SDS011;4015;48.888;9.226;2022-10-31T06:03:28;12.63;;;6.40;;
7939;SDS011;4015;48.888;9.226;2022-10-31T06:05:54;11.27;;;6.50;;
7939;SDS011;4015;48.888;9.226;2022-10-31T06:08:19;10.07;;;6.17;;
7939;SDS011;4015;48.888;9.226;2022-10-31T06:10:44;10.47;;;6.00;;
7939;SDS011;4015;48.888;9.226;2022-10-31T06:13:09;9.77;;;6.40;;
7939;SDS011;4015;48.888;9.226;2022-10-31T06:15:35;15.80;;;7.27;;
7939;SDS011;4015;48.888;9.226;2022-10-31T06:18:01;10.17;;;6.37;;
7939;SDS011;4015;48.888;9.226;2022-10-31T06:20:28;12.23;;;6.37;;
7939;SDS011;4015;48.888;9.226;2022-10-31T06:22:54;12.53;;;6.97;;
7939;SDS011;4015;48.888;9.226;2022-10-31T06:25:19;9.60;;;6.27;;
7939;SDS011;4015;48.888;9.226;2022-10-31T06:27:45;16.20;;;6.80;;
7939;SDS011;4015;48.888;9.226;2022-10-31T06:30:10;11.47;;;5.97;;
7939;SDS011;4015;48.888;9.226;2022-10-31T06:32:36;12.53;;;6.57;;
7939;SDS011;4015;48.888;9.226;2022-10-31T06:35:01;9.77;;;5.93;;
7939;SDS011;4015;48.888;9.226;2022-10-31T06:37:27;9.87;;;5.97;;
7939;SDS011;4015;48.888;9.226;2022-10-31T06:39:52;9.63;;;5.97;;
7939;SDS011;4015;48.888;9.226;2022-10-31T06:42:17;8.90;;;6.43;;
7939;SDS011;4015;48.888;9.226;2022-10-31T06:44:43;10.57;;;6.50;;
7939;SDS011;4015;48.888;9.226;2022-10-31T06:47:08;7.37;;;5.73;;
7939;SDS011;4015;48.888;9.226;2022-10-31T06:49:34;11.93;;;6.30;;
7939;SDS011;4015;48.888;9.226;2022-10-31T06:51:59;12.17;;;6.23;;
7939;SDS011;4015;48.888;9.226;2022-10-31T06:54:24;8.10;;;5.93;;
7939;SDS011;4015;48.888;9.226;2022-10-31T06:56:50;9.47;;;5.90;;
7939;SDS011;4015;48.888;9.226;2022-10-31T06:59:15;13.13;;;5.57;;
7939;SDS011;4015;48.888;9.226;2022-10-31T07:01:41;11.33;;;5.77;;
7939;SDS011;4015;48.888;9.226;2022-10-31T07:04:07;14.23;;;6.37;;
7939;SDS011;4015;48.888;9.226;2022-10-31T07:06:34;8.57;;;5.57;;
7939;SDS011;4015;48.888;9.226;2022-10-31T07:08:59;14.23;;;5.90;;
7939;SDS011;4015;48.888;9.226;2022-10-31T07:11:24;8.70;;;5.57;;
7939;SDS011;4015;48.888;9.226;2022-10-31T07:13:50;8.03;;;6.33;;
7939;SDS011;4015;48.888;9.226;2022-10-31T07:16:15;9.43;;;6.10;;
7939;SDS011;4015;48.888;9.226;2022-10-31T07:18:40;9.37;;;5.70;;
7939;SDS011;4015;48.888;9.226;2022-10-31T07:21:06;8.93;;;5.33;;
7939;SDS011;4015;48.888;9.226;2022-10-31T07:23:31;9.77;;;6.03;;
7939;SDS011;4015;48.888;9.226;2022-10-31T07:25:57;15.07;;;6.13;;
7939;SDS011;4015;48.888;9.226;2022-10-31T07:28:23;8.83;;;5.20;;
7939;SDS011;4015;48.888;9.226;2022-10-31T07:30:50;8.80;;;5.53;;
7939;SDS011;4015;48.888;9.226;2022-10-31T07:33:16;11.50;;;5.37;;
7939;SDS011;4015;48.888;9.226;2022-10-31T07:35:41;10.40;;;6.27;;
7939;SDS011;4015;48.888;9.226;2022-10-31T07:38:11;12.03;;;5.83;;
7939;SDS011;4015;48.888;9.226;2022-10-31T07:40:38;7.63;;;5.30;;
7939;SDS011;4015;48.888;9.226;2022-10-31T07:43:04;10.57;;;5.70;;
7939;SDS011;4015;48.888;9.226;2022-10-31T07:45:29;13.33;;;6.20;;
7939;SDS011;4015;48.888;9.226;2022-10-31T07:47:55;7.83;;;5.53;;
7939;SDS011;4015;48.888;9.226;2022-10-31T07:50:21;11.07;;;5.63;;
7939;SDS011;4015;48.888;9.226;2022-10-31T07:52:48;9.30;;;5.73;;
7939;SDS011;4015;48.888;9.226;2022-10-31T07:55:22;11.00;;;5.37;;
7939;SDS011;4015;48.888;9.226;2022-10-31T07:57:54;8.83;;;5.47;;
7939;SDS011;4015;48.888;9.226;2022-10-31T08:00:21;9.73;;;5.73;;
7939;SDS011;4015;48.888;9.226;2022-10-31T08:02:46;9.70;;;6.40;;
7939;SDS011;4015;48.888;9.226;2022-10-31T08:05:11;10.60;;;5.57;;
7939;SDS011;4015;48.888;9.226;2022-10-31T08:07:36;8.30;;;5.90;;
7939;SDS011;4015;48.888;9.226;2022-10-31T08:10:02;8.10;;;5.40;;
7939;SDS011;4015;48.888;9.226;2022-10-31T08:12:28;7.47;;;5.83;;
7939;SDS011;4015;48.888;9.226;2022-10-31T08:14:53;9.47;;;5.50;;
7939;SDS011;4015;48.888;9.226;2022-10-31T08:17:19;8.73;;;5.50;;
7939;SDS011;4015;48.888;9.226;2022-10-31T08:19:44;8.23;;;5.73;;
7939;SDS011;4015;48.888;9.226;2022-10-31T08:22:09;13.67;;;6.40;;
7939;SDS011;4015;48.888;9.226;2022-10-31T08:24:35;8.57;;;5.90;;
7939;SDS011;4015;48.888;9.226;2022-10-31T08:27:00;8.33;;;6.10;;
7939;SDS011;4015;48.888;9.226;2022-10-31T08:29:25;15.50;;;6.23;;
7939;SDS011;4015;48.888;9.226;2022-10-31T08:31:51;13.00;;;5.73;;
7939;SDS011;4015;48.888;9.226;2022-10-31T08:34:16;12.83;;;6.27;;
7939;SDS011;4015;48.888;9.226;2022-10-31T08:36:41;7.90;;;5.60;;
7939;SDS011;4015;48.888;9.226;2022-10-31T08:39:09;9.50;;;5.43;;
7939;SDS011;4015;48.888;9.226;2022-10-31T08:41:35;7.50;;;4.83;;
7939;SDS011;4015;48.888;9.226;2022-10-31T08:44:00;10.13;;;5.53;;
7939;SDS011;4015;48.888;9.226;2022-10-31T08:46:26;9.43;;;5.97;;
7939;SDS011;4015;48.888;9.226;2022-10-31T08:48:51;9.83;;;5.57;;
7939;SDS011;4015;48.888;9.226;2022-10-31T08:51:16;8.63;;;5.05;;
7939;SDS011;4015;48.888;9.226;2022-10-31T08:53:42;9.90;;;5.80;;
7939;SDS011;4015;48.888;9.226;2022-10-31T08:56:07;11.05;;;5.22;;
7939;SDS011;4015;48.888;9.226;2022-10-31T08:58:32;8.93;;;5.57;;
7939;SDS011;4015;48.888;9.226;2022-10-31T09:00:59;8.40;;;5.57;;
7939;SDS011;4015;48.888;9.226;2022-10-31T09:03:26;10.13;;;5.20;;
7939;SDS011;4015;48.888;9.226;2022-10-31T09:05:57;9.27;;;6.38;;
7939;SDS011;4015;48.888;9.226;2022-10-31T09:08:24;7.55;;;5.43;;
7939;SDS011;4015;48.888;9.226;2022-10-31T09:10:50;11.00;;;6.13;;
7939;SDS011;4015;48.888;9.226;2022-10-31T09:13:16;12.10;;;6.43;;
7939;SDS011;4015;48.888;9.226;2022-10-31T09:15:44;12.93;;;5.82;;
7939;SDS011;4015;48.888;9.226;2022-10-31T09:18:12;9.77;;;5.30;;
7939;SDS011;4015;48.888;9.226;2022-10-31T09:20:39;7.35;;;5.50;;
7939;SDS011;4015;48.888;9.226;2022-10-31T09:23:07;8.50;;;4.95;;
7939;SDS011;4015;48.888;9.226;2022-10-31T09:25:35;9.15;;;5.03;;
7939;SDS011;4015;48.888;9.226;2022-10-31T09:28:01;10.60;;;5.88;;
7939;SDS011;4015;48.888;9.226;2022-10-31T09:30:28;10.55;;;5.05;;
7939;SDS011;4015;48.888;9.226;2022-10-31T09:33:02;9.35;;;4.55;;
7939;SDS011;4015;48.888;9.226;2022-10-31T09:35:35;10.68;;;5.00;;
7939;SDS011;4015;48.888;9.226;2022-10-31T09:38:02;8.27;;;5.93;;
7939;SDS011;4015;48.888;9.226;2022-10-31T09:43:17;10.65;;;4.53;;
7939;SDS011;4015;48.888;9.226;2022-10-31T09:46:04;11.95;;;5.40;;
7939;SDS011;4015;48.888;9.226;2022-10-31T09:48:45;12.52;;;5.03;;
7939;SDS011;4015;48.888;9.226;2022-10-31T09:51:34;10.10;;;5.43;;
7939;SDS011;4015;48.888;9.226;2022-10-31T09:54:18;13.38;;;5.18;;
7939;SDS011;4015;48.888;9.226;2022-10-31T09:56:46;13.35;;;5.68;;
7939;SDS011;4015;48.888;9.226;2022-10-31T09:59:16;6.05;;;4.90;;
7939;SDS011;4015;48.888;9.226;2022-10-31T10:01:54;7.03;;;5.13;;
7939;SDS011;4015;48.888;9.226;2022-10-31T10:07:11;10.68;;;4.82;;
7939;SDS011;4015;48.888;9.226;2022-10-31T10:09:42;7.32;;;4.95;;
7939;SDS011;4015;48.888;9.226;2022-10-31T10:12:13;10.15;;;4.72;;
7939;SDS011;4015;48.888;9.226;2022-10-31T10:14:54;8.45;;;5.28;;
7939;SDS011;4015;48.888;9.226;2022-10-31T10:20:18;10.40;;;4.65;;
7939;SDS011;4015;48.888;9.226;2022-10-31T10:26:22;9.80;;;5.00;;
7939;SDS011;4015;48.888;9.226;2022-10-31T10:28:57;6.70;;;4.70;;
7939;SDS011;4015;48.888;9.226;2022-10-31T10:31:27;12.85;;;5.28;;
7939;SDS011;4015;48.888;9.226;2022-10-31T10:33:59;11.13;;;5.32;;
7939;SDS011;4015;48.888;9.226;2022-10-31T10:36:33;10.65;;;5.10;;
7939;SDS011;4015;48.888;9.226;2022-10-31T10:41:46;6.53;;;5.32;;
7939;SDS011;4015;48.888;9.226;2022-10-31T10:44:31;12.02;;;4.88;;
7939;SDS011;4015;48.888;9.226;2022-10-31T10:47:16;9.52;;;4.80;;
7939;SDS011;4015;48.888;9.226;2022-10-31T10:50:00;8.75;;;5.10;;
7939;SDS011;4015;48.888;9.226;2022-10-31T11:00:22;9.02;;;4.63;;
7939;SDS011;4015;48.888;9.226;2022-10-31T11:02:54;7.97;;;5.35;;
7939;SDS011;4015;48.888;9.226;2022-10-31T11:08:04;9.95;;;5.43;;
7939;SDS011;4015;48.888;9.226;2022-10-31T11:10:30;9.10;;;5.38;;
7939;SDS011;4015;48.888;9.226;2022-10-31T11:13:21;14.43;;;4.72;;
7939;SDS011;4015;48.888;9.226;2022-10-31T11:18:21;10.30;;;5.32;;
7939;SDS011;4015;48.888;9.226;2022-10-31T11:20:53;7.45;;;5.57;;
7939;SDS011;4015;48.888;9.226;2022-10-31T11:23:21;16.75;;;6.00;;
7939;SDS011;4015;48.888;9.226;2022-10-31T11:28:21;8.57;;;5.55;;
7939;SDS011;4015;48.888;9.226;2022-10-31T11:30:47;7.95;;;5.45;;
7939;SDS011;4015;48.888;9.226;2022-10-31T11:33:17;11.48;;;5.75;;
7939;SDS011;4015;48.888;9.226;2022-10-31T11:36:03;10.82;;;5.50;;
7939;SDS011;4015;48.888;9.226;2022-10-31T11:38:55;10.93;;;5.55;;
7939;SDS011;4015;48.888;9.226;2022-10-31T11:41:27;14.57;;;6.10;;
7939;SDS011;4015;48.888;9.226;2022-10-31T11:43:54;10.43;;;5.22;;
7939;SDS011;4015;48.888;9.226;2022-10-31T11:46:27;8.77;;;5.05;;
7939;SDS011;4015;48.888;9.226;2022-10-31T11:48:59;11.95;;;5.75;;
7939;SDS011;4015;48.888;9.226;2022-10-31T11:51:27;13.65;;;5.63;;
7939;SDS011;4015;48.888;9.226;2022-10-31T11:53:57;8.48;;;5.15;;
7939;SDS011;4015;48.888;9.226;2022-10-31T11:56:23;12.38;;;5.45;;
7939;SDS011;4015;48.888;9.226;2022-10-31T11:58:56;13.35;;;6.00;;
7939;SDS011;4015;48.888;9.226;2022-10-31T12:01:24;8.02;;;5.05;;
7939;SDS011;4015;48.888;9.226;2022-10-31T12:06:31;9.43;;;5.30;;
7939;SDS011;4015;48.888;9.226;2022-10-31T12:09:00;9.65;;;5.10;;
7939;SDS011;4015;48.888;9.226;2022-10-31T12:16:49;13.07;;;5.70;;
7939;SDS011;4015;48.888;9.226;2022-10-31T12:24:35;7.13;;;4.93;;
7939;SDS011;4015;48.888;9.226;2022-10-31T12:32:40;14.43;;;6.07;;
7939;SDS011;4015;48.888;9.226;2022-10-31T12:44:00;13.43;;;5.80;;
7939;SDS011;4015;48.888;9.226;2022-10-31T12:46:44;9.05;;;5.70;;
7939;SDS011;4015;48.888;9.226;2022-10-31T12:54:36;13.50;;;6.72;;
7939;SDS011;4015;48.888;9.226;2022-10-31T12:57:44;13.32;;;6.10;;
7939;SDS011;4015;48.888;9.226;2022-10-31T13:03:09;13.07;;;6.50;;
7939;SDS011;4015;48.888;9.226;2022-10-31T13:05:46;7.85;;;5.55;;
7939;SDS011;4015;48.888;9.226;2022-10-31T13:08:20;14.35;;;6.47;;
7939;SDS011;4015;48.888;9.226;2022-10-31T13:10:51;10.52;;;6.15;;
7939;SDS011;4015;48.888;9.226;2022-10-31T13:13:41;11.57;;;7.07;;
7939;SDS011;4015;48.888;9.226;2022-10-31T13:16:18;10.25;;;6.90;;
7939;SDS011;4015;48.888;9.226;2022-10-31T13:18:47;12.95;;;6.28;;
7939;SDS011;4015;48.888;9.226;2022-10-31T13:21:33;13.43;;;6.60;;
7939;SDS011;4015;48.888;9.226;2022-10-31T13:24:03;11.20;;;6.75;;
7939;SDS011;4015;48.888;9.226;2022-10-31T13:29:15;11.15;;;5.68;;
7939;SDS011;4015;48.888;9.226;2022-10-31T13:31:49;13.93;;;6.57;;
7939;SDS011;4015;48.888;9.226;2022-10-31T13:34:29;11.55;;;6.65;;
7939;SDS011;4015;48.888;9.226;2022-10-31T13:37:04;11.55;;;6.10;;
7939;SDS011;4015;48.888;9.226;2022-10-31T13:42:23;9.20;;;6.55;;
7939;SDS011;4015;48.888;9.226;2022-10-31T13:45:12;10.20;;;6.20;;
7939;SDS011;4015;48.888;9.226;2022-10-31T13:47:40;15.02;;;7.20;;
7939;SDS011;4015;48.888;9.226;2022-10-31T13:50:54;12.23;;;6.75;;
7939;SDS011;4015;48.888;9.226;2022-10-31T13:53:08;11.85;;;6.53;;
7939;SDS011;4015;48.888;9.226;2022-10-31T13:58:28;10.77;;;5.95;;
7939;SDS011;4015;48.888;9.226;2022-10-31T14:03:40;14.35;;;6.07;;
7939;SDS011;4015;48.888;9.226;2022-10-31T14:06:09;12.40;;;5.90;;
7939;SDS011;4015;48.888;9.226;2022-10-31T14:08:39;14.10;;;7.05;;
7939;SDS011;4015;48.888;9.226;2022-10-31T14:11:17;10.38;;;5.40;;
7939;SDS011;4015;48.888;9.226;2022-10-31T14:13:55;11.25;;;5.93;;
7939;SDS011;4015;48.888;9.226;2022-10-31T14:16:24;10.43;;;5.88;;
7939;SDS011;4015;48.888;9.226;2022-10-31T14:18:57;15.05;;;6.22;;
7939;SDS011;4015;48.888;9.226;2022-10-31T14:23:48;8.50;;;5.65;;
7939;SDS011;4015;48.888;9.226;2022-10-31T14:28:54;12.23;;;5.88;;
7939;SDS011;4015;48.888;9.226;2022-10-31T14:34:19;16.10;;;8.73;;
7939;SDS011;4015;48.888;9.226;2022-10-31T14:50:45;9.75;;;5.70;;
7939;SDS011;4015;48.888;9.226;2022-10-31T14:53:16;18.90;;;6.65;;
7939;SDS011;4015;48.888;9.226;2022-10-31T14:55:49;14.80;;;6.55;;
7939;SDS011;4015;48.888;9.226;2022-10-31T14:58:25;12.00;;;7.13;;
7939;SDS011;4015;48.888;9.226;2022-10-31T15:00:58;16.15;;;6.28;;
7939;SDS011;4015;48.888;9.226;2022-10-31T15:03:29;14.20;;;6.47;;
7939;SDS011;4015;48.888;9.226;2022-10-31T15:05:59;13.77;;;6.70;;
7939;SDS011;4015;48.888;9.226;2022-10-31T15:08:44;14.77;;;6.13;;
7939;SDS011;4015;48.888;9.226;2022-10-31T15:11:12;12.57;;;7.07;;
7939;SDS011;4015;48.888;9.226;2022-10-31T15:16:13;15.02;;;7.68;;
7939;SDS011;4015;48.888;9.226;2022-10-31T15:21:42;14.75;;;7.72;;
7939;SDS011;4015;48.888;9.226;2022-10-31T15:24:10;15.35;;;8.00;;
7939;SDS011;4015;48.888;9.226;2022-10-31T15:26:39;16.60;;;7.85;;
7939;SDS011;4015;48.888;9.226;2022-10-31T15:29:10;16.30;;;7.88;;
7939;SDS011;4015;48.888;9.226;2022-10-31T15:31:38;11.98;;;7.28;;
7939;SDS011;4015;48.888;9.226;2022-10-31T15:34:05;12.95;;;7.22;;
7939;SDS011;4015;48.888;9.226;2022-10-31T15:36:39;11.23;;;7.45;;
7939;SDS011;4015;48.888;9.226;2022-10-31T15:39:05;12.15;;;7.95;;
7939;SDS011;4015;48.888;9.226;2022-10-31T15:44:14;14.65;;;8.15;;
7939;SDS011;4015;48.888;9.226;2022-10-31T15:46:54;16.23;;;8.68;;
7939;SDS011;4015;48.888;9.226;2022-10-31T15:49:41;9.77;;;7.70;;
7939;SDS011;4015;48.888;9.226;2022-10-31T15:52:14;13.43;;;8.57;;
7939;SDS011;4015;48.888;9.226;2022-10-31T15:54:50;13.35;;;7.45;;
7939;SDS011;4015;48.888;9.226;2022-10-31T15:57:20;9.73;;;8.05;;
7939;SDS011;4015;48.888;9.226;2022-10-31T15:59:47;11.57;;;8.90;;
7939;SDS011;4015;48.888;9.226;2022-10-31T16:02:14;25.38;;;9.55;;
7939;SDS011;4015;48.888;9.226;2022-10-31T16:04:52;16.75;;;9.05;;
7939;SDS011;4015;48.888;9.226;2022-10-31T16:07:18;11.25;;;7.60;;
7939;SDS011;4015;48.888;9.226;2022-10-31T16:09:48;13.02;;;8.88;;
7939;SDS011;4015;48.888;9.226;2022-10-31T16:12:21;13.75;;;9.27;;
7939;SDS011;4015;48.888;9.226;2022-10-31T16:14:49;14.20;;;9.27;;
7939;SDS011;4015;48.888;9.226;2022-10-31T16:17:17;14.93;;;8.68;;
7939;SDS011;4015;48.888;9.226;2022-10-31T16:19:47;13.27;;;8.55;;
7939;SDS011;4015;48.888;9.226;2022-10-31T16:22:20;12.57;;;8.98;;
7939;SDS011;4015;48.888;9.226;2022-10-31T16:24:49;20.13;;;9.88;;
7939;SDS011;4015;48.888;9.226;2022-10-31T16:27:33;13.57;;;9.18;;
7939;SDS011;4015;48.888;9.226;2022-10-31T16:30:01;11.65;;;8.40;;
7939;SDS011;4015;48.888;9.226;2022-10-31T16:32:54;13.18;;;9.02;;
7939;SDS011;4015;48.888;9.226;2022-10-31T16:37:56;11.98;;;8.95;;
7939;SDS011;4015;48.888;9.226;2022-10-31T16:40:22;14.07;;;9.00;;
7939;SDS011;4015;48.888;9.226;2022-10-31T16:42:48;16.85;;;10.13;;
7939;SDS011;4015;48.888;9.226;2022-10-31T16:45:21;17.95;;;10.05;;
7939;SDS011;4015;48.888;9.226;2022-10-31T16:47:48;16.77;;;9.30;;
7939;SDS011;4015;48.888;9.226;2022-10-31T16:50:21;15.13;;;9.02;;
7939;SDS011;4015;48.888;9.226;2022-10-31T16:52:47;12.32;;;8.98;;
7939;SDS011;4015;48.888;9.226;2022-10-31T16:55:14;12.30;;;8.02;;
7939;SDS011;4015;48.888;9.226;2022-10-31T16:57:45;22.45;;;10.88;;
7939;SDS011;4015;48.888;9.226;2022-10-31T17:00:15;14.05;;;10.00;;
7939;SDS011;4015;48.888;9.226;2022-10-31T17:02:45;14.95;;;9.43;;
7939;SDS011;4015;48.888;9.226;2022-10-31T17:05:14;12.00;;;8.93;;
7939;SDS011;4015;48.888;9.226;2022-10-31T17:07:40;12.43;;;8.83;;
7939;SDS011;4015;48.888;9.226;2022-10-31T17:10:07;13.50;;;9.65;;
7939;SDS011;4015;48.888;9.226;2022-10-31T17:12:33;16.00;;;8.87;;
7939;SDS011;4015;48.888;9.226;2022-10-31T17:15:00;12.47;;;9.10;;
7939;SDS011;4015;48.888;9.226;2022-10-31T17:17:26;16.27;;;9.53;;
7939;SDS011;4015;48.888;9.226;2022-10-31T17:19:51;13.97;;;8.77;;
7939;SDS011;4015;48.888;9.226;2022-10-31T17:22:17;17.77;;;10.03;;
7939;SDS011;4015;48.888;9.226;2022-10-31T17:24:42;16.13;;;10.20;;
7939;SDS011;4015;48.888;9.226;2022-10-31T17:27:08;12.37;;;10.10;;
7939;SDS011;4015;48.888;9.226;2022-10-31T17:29:33;15.73;;;9.47;;
7939;SDS011;4015;48.888;9.226;2022-10-31T17:31:59;12.83;;;8.87;;
7939;SDS011;4015;48.888;9.226;2022-10-31T17:34:27;14.17;;;10.70;;
7939;SDS011;4015;48.888;9.226;2022-10-31T17:36:52;15.43;;;10.33;;